createdAt,value
2022-10-05T00:00:25.319Z,84.56
2022-10-05T00:01:25.409Z,83.99
2022-10-05T00:02:25.442Z,84.66
2022-10-05T00:03:25.418Z,83.90
2022-10-05T00:04:25.454Z,83.99
2022-10-05T00:05:25.568Z,83.99
2022-10-05T00:06:25.518Z,84.19
2022-10-05T00:07:25.549Z,84.09
2022-10-05T00:08:25.587Z,83.99
2022-10-05T00:09:25.615Z,84.19
2022-10-05T00:10:25.652Z,84.09
2022-10-05T00:11:25.682Z,84.38
2022-10-05T00:12:25.752Z,84.09
2022-10-05T00:13:25.748Z,84.28
2022-10-05T00:14:25.780Z,83.61
2022-10-05T00:15:25.812Z,84.56
2022-10-05T00:16:25.870Z,84.19
2022-10-05T00:17:25.887Z,84.47
2022-10-05T00:18:25.912Z,84.38
2022-10-05T00:19:25.944Z,84.38
2022-10-05T00:20:25.977Z,84.56
2022-10-05T00:21:26.017Z,84.38
2022-10-05T00:22:26.044Z,84.47
2022-10-05T00:23:26.079Z,84.47
2022-10-05T00:24:26.111Z,84.28
2022-10-05T00:25:26.143Z,84.66
2022-10-05T00:26:26.176Z,84.66
2022-10-05T00:27:26.207Z,84.47
2022-10-05T00:28:26.300Z,83.80
2022-10-05T00:29:26.272Z,84.28
2022-10-05T00:30:26.307Z,84.47
2022-10-05T00:31:26.391Z,84.28
2022-10-05T00:32:26.374Z,84.28
2022-10-05T00:33:26.406Z,84.38
2022-10-05T00:34:26.441Z,84.66
2022-10-05T00:35:26.471Z,84.38
2022-10-05T00:36:26.504Z,84.56
2022-10-05T00:37:26.537Z,84.56
2022-10-05T00:38:26.570Z,84.47
2022-10-05T00:39:26.602Z,84.66
2022-10-05T00:40:26.636Z,84.56
2022-10-05T00:41:26.670Z,84.56
2022-10-05T00:42:26.703Z,84.66
2022-10-05T00:43:26.733Z,84.47
2022-10-05T00:44:26.770Z,84.56
2022-10-05T00:45:26.840Z,84.66
2022-10-05T00:46:26.835Z,84.19
2022-10-05T00:47:26.866Z,84.66
2022-10-05T00:48:26.898Z,84.66
2022-10-05T00:49:26.930Z,84.76
2022-10-05T00:50:26.967Z,85.33
2022-10-05T00:51:26.995Z,85.29
2022-10-05T00:52:27.030Z,85.38
2022-10-05T00:53:27.064Z,85.10
2022-10-05T00:54:27.096Z,85.29
2022-10-05T00:55:27.127Z,85.29
2022-10-05T00:56:27.161Z,85.19
2022-10-05T00:57:27.194Z,85.38
2022-10-05T00:58:27.234Z,85.19
2022-10-05T00:59:27.262Z,85.19
2022-10-05T01:00:27.299Z,85.58
2022-10-05T01:01:27.387Z,85.77
2022-10-05T01:02:27.454Z,86.24
2022-10-05T01:03:27.395Z,85.77
2022-10-05T01:04:27.425Z,85.86
2022-10-05T01:05:27.461Z,85.86
2022-10-05T01:06:27.491Z,85.67
2022-10-05T01:07:27.521Z,85.48
2022-10-05T01:08:27.560Z,85.96
2022-10-05T01:09:27.586Z,85.86
2022-10-05T01:10:27.619Z,85.86
2022-10-05T01:11:27.659Z,86.63
2022-10-05T01:12:27.686Z,86.43
2022-10-05T01:13:27.719Z,86.63
2022-10-05T01:14:27.751Z,86.34
2022-10-05T01:15:27.782Z,86.53
2022-10-05T01:16:27.834Z,86.63
2022-10-05T01:17:27.853Z,86.15
2022-10-05T01:18:27.883Z,86.24
2022-10-05T01:19:27.929Z,86.63
2022-10-05T01:20:27.975Z,86.82
2022-10-05T01:21:27.978Z,86.15
2022-10-05T01:22:28.013Z,86.34
2022-10-05T01:23:28.043Z,86.53
2022-10-05T01:24:28.077Z,86.72
2022-10-05T01:25:28.110Z,86.53
2022-10-05T01:26:28.142Z,86.63
2022-10-05T01:27:28.172Z,85.96
2022-10-05T01:28:28.281Z,86.43
2022-10-05T01:29:28.240Z,86.82
2022-10-05T01:30:28.276Z,87.01
2022-10-05T01:31:28.355Z,86.53
2022-10-05T01:32:28.353Z,86.63
2022-10-05T01:33:28.369Z,86.63
2022-10-05T01:34:28.403Z,86.15
2022-10-05T01:35:28.436Z,86.24
2022-10-05T01:36:28.473Z,86.15
2022-10-05T01:37:28.501Z,86.53
2022-10-05T01:38:28.535Z,86.24
2022-10-05T01:39:28.566Z,86.24
2022-10-05T01:40:28.599Z,86.43
2022-10-05T01:41:28.630Z,86.05
2022-10-05T01:42:28.665Z,86.05
2022-10-05T01:43:28.699Z,85.77
2022-10-05T01:44:28.736Z,86.34
2022-10-05T01:45:28.793Z,86.53
2022-10-05T01:46:28.796Z,86.24
2022-10-05T01:47:28.825Z,86.24
2022-10-05T01:48:28.864Z,86.34
2022-10-05T01:49:28.894Z,86.53
2022-10-05T01:50:28.928Z,86.05
2022-10-05T01:51:28.956Z,85.67
2022-10-05T01:52:28.993Z,85.96
2022-10-05T01:53:29.021Z,85.96
2022-10-05T01:54:29.055Z,86.15
2022-10-05T01:55:29.085Z,86.05
2022-10-05T01:56:29.118Z,85.96
2022-10-05T01:57:29.152Z,86.05
2022-10-05T01:58:29.184Z,85.96
2022-10-05T01:59:29.230Z,85.86
2022-10-05T02:00:29.249Z,86.05
2022-10-05T02:01:29.321Z,85.96
2022-10-05T02:02:29.357Z,86.05
2022-10-05T02:03:29.346Z,86.15
2022-10-05T02:04:59.932Z,85.77
2022-10-05T02:05:29.411Z,85.77
2022-10-05T02:06:29.446Z,85.67
2022-10-05T02:07:29.476Z,86.05
2022-10-05T02:08:29.509Z,86.20
2022-10-05T02:09:29.541Z,86.49
2022-10-05T02:10:29.575Z,86.58
2022-10-05T02:11:29.606Z,86.49
2022-10-05T02:12:29.642Z,86.05
2022-10-05T02:13:29.671Z,86.05
2022-10-05T02:14:29.707Z,86.20
2022-10-05T02:15:29.823Z,86.53
2022-10-05T02:16:29.769Z,85.67
2022-10-05T02:17:29.801Z,86.34
2022-10-05T02:18:29.840Z,86.01
2022-10-05T02:19:29.865Z,85.96
2022-10-05T02:20:29.899Z,86.05
2022-10-05T02:21:29.932Z,86.01
2022-10-05T02:22:29.970Z,86.24
2022-10-05T02:23:29.996Z,85.86
2022-10-05T02:24:30.029Z,85.96
2022-10-05T02:25:30.066Z,85.77
2022-10-05T02:26:30.105Z,86.01
2022-10-05T02:27:30.133Z,86.05
2022-10-05T02:28:30.243Z,86.10
2022-10-05T02:29:30.192Z,86.39
2022-10-05T02:30:30.225Z,86.30
2022-10-05T02:31:30.327Z,86.20
2022-10-05T02:32:30.292Z,86.49
2022-10-05T02:33:30.329Z,86.58
2022-10-05T02:34:30.357Z,86.68
2022-10-05T02:35:30.386Z,85.91
2022-10-05T02:36:30.424Z,85.86
2022-10-05T02:37:30.452Z,85.72
2022-10-05T02:38:30.488Z,86.01
2022-10-05T02:39:30.516Z,85.82
2022-10-05T02:40:30.552Z,85.86
2022-10-05T02:41:30.580Z,85.82
2022-10-05T02:42:30.614Z,85.63
2022-10-05T02:43:30.645Z,85.77
2022-10-05T02:44:30.680Z,85.67
2022-10-05T02:45:30.778Z,85.63
2022-10-05T02:46:30.748Z,86.24
2022-10-05T02:47:30.775Z,86.34
2022-10-05T02:48:30.812Z,86.30
2022-10-05T02:49:30.841Z,86.20
2022-10-05T02:50:30.874Z,86.58
2022-10-05T02:51:30.911Z,86.58
2022-10-05T02:52:31.002Z,86.49
2022-10-05T02:53:30.975Z,86.49
2022-10-05T02:54:31.004Z,86.68
2022-10-05T02:55:31.035Z,86.20
2022-10-05T02:56:31.068Z,86.30
2022-10-05T02:57:31.103Z,86.68
2022-10-05T02:58:31.141Z,86.68
2022-10-05T02:59:31.165Z,86.10
2022-10-05T03:00:31.196Z,86.01
2022-10-05T03:01:31.287Z,86.30
2022-10-05T03:02:31.289Z,86.30
2022-10-05T03:03:31.299Z,86.77
2022-10-05T03:04:31.327Z,86.77
2022-10-05T03:05:31.361Z,86.49
2022-10-05T03:06:31.394Z,86.58
2022-10-05T03:07:31.462Z,86.39
2022-10-05T03:08:31.458Z,86.96
2022-10-05T03:09:31.489Z,86.58
2022-10-05T03:10:31.524Z,86.87
2022-10-05T03:11:31.570Z,86.68
2022-10-05T03:12:31.587Z,86.87
2022-10-05T03:13:31.621Z,86.87
2022-10-05T03:14:31.653Z,86.77
2022-10-05T03:15:31.684Z,87.15
2022-10-05T03:16:31.778Z,86.96
2022-10-05T03:17:31.748Z,86.77
2022-10-05T03:18:31.782Z,86.77
2022-10-05T03:19:31.811Z,87.06
2022-10-05T03:20:31.847Z,86.68
2022-10-05T03:21:31.879Z,87.06
2022-10-05T03:22:31.912Z,86.58
2022-10-05T03:23:31.941Z,86.77
2022-10-05T03:24:31.976Z,86.58
2022-10-05T03:25:32.006Z,86.87
2022-10-05T03:26:32.041Z,86.96
2022-10-05T03:27:32.076Z,87.06
2022-10-05T03:28:32.126Z,86.96
2022-10-05T03:29:32.136Z,86.49
2022-10-05T03:30:32.170Z,86.87
2022-10-05T03:31:32.230Z,86.96
2022-10-05T03:32:32.232Z,87.44
2022-10-05T03:33:32.266Z,87.25
2022-10-05T03:34:32.307Z,87.15
2022-10-05T03:35:32.328Z,88.01
2022-10-05T03:36:32.363Z,87.82
2022-10-05T03:37:32.396Z,87.92
2022-10-05T03:38:32.427Z,87.73
2022-10-05T03:39:32.460Z,87.54
2022-10-05T03:40:32.495Z,87.82
2022-10-05T03:41:32.534Z,87.92
2022-10-05T03:42:32.558Z,87.73
2022-10-05T03:43:32.588Z,87.44
2022-10-05T03:44:32.623Z,87.92
2022-10-05T03:45:32.653Z,87.82
2022-10-05T03:46:32.825Z,87.63
2022-10-05T03:47:32.716Z,87.54
2022-10-05T03:48:32.762Z,88.01
2022-10-05T03:49:32.781Z,87.92
2022-10-05T03:50:32.816Z,87.44
2022-10-05T03:51:32.851Z,87.82
2022-10-05T03:52:32.881Z,88.01
2022-10-05T03:53:32.912Z,87.35
2022-10-05T03:54:32.944Z,87.82
2022-10-05T03:55:32.976Z,87.63
2022-10-05T03:56:33.013Z,87.63
2022-10-05T03:57:33.039Z,87.73
2022-10-05T03:58:33.072Z,87.92
2022-10-05T03:59:33.104Z,87.63
2022-10-05T04:00:33.138Z,87.44
2022-10-05T04:01:33.198Z,87.82
2022-10-05T04:02:33.257Z,87.82
2022-10-05T04:03:33.231Z,87.82
2022-10-05T04:04:33.267Z,87.54
2022-10-05T04:05:33.299Z,87.44
2022-10-05T04:06:33.333Z,88.01
2022-10-05T04:07:33.362Z,87.44
2022-10-05T04:08:33.396Z,87.06
2022-10-05T04:09:33.425Z,87.44
2022-10-05T04:10:33.460Z,87.25
2022-10-05T04:11:33.490Z,87.15
2022-10-05T04:12:33.559Z,87.25
2022-10-05T04:13:33.558Z,87.15
2022-10-05T04:14:33.588Z,87.15
2022-10-05T04:15:33.646Z,87.35
2022-10-05T04:16:33.657Z,86.96
2022-10-05T04:17:33.689Z,87.54
2022-10-05T04:18:33.718Z,87.44
2022-10-05T04:19:33.750Z,86.87
2022-10-05T04:20:33.780Z,87.73
2022-10-05T04:21:33.812Z,87.54
2022-10-05T04:22:33.845Z,87.54
2022-10-05T04:23:33.877Z,87.44
2022-10-05T04:24:33.909Z,87.44
2022-10-05T04:25:33.943Z,87.63
2022-10-05T04:26:33.974Z,87.44
2022-10-05T04:27:34.007Z,87.35
2022-10-05T04:28:34.081Z,87.54
2022-10-05T04:29:34.071Z,87.44
2022-10-05T04:30:34.103Z,87.06
2022-10-05T04:31:34.211Z,87.15
2022-10-05T04:32:34.167Z,87.63
2022-10-05T04:33:34.199Z,87.35
2022-10-05T04:34:34.231Z,87.15
2022-10-05T04:35:34.265Z,87.54
2022-10-05T04:36:34.296Z,87.73
2022-10-05T04:37:34.329Z,87.35
2022-10-05T04:38:34.361Z,87.15
2022-10-05T04:39:34.397Z,87.82
2022-10-05T04:40:34.425Z,87.73
2022-10-05T04:41:34.458Z,87.35
2022-10-05T04:42:34.493Z,87.73
2022-10-05T04:43:34.522Z,87.63
2022-10-05T04:44:34.558Z,87.44
2022-10-05T04:45:34.587Z,87.15
2022-10-05T04:46:34.678Z,87.06
2022-10-05T04:47:34.652Z,87.15
2022-10-05T04:48:34.682Z,87.35
2022-10-05T04:49:34.714Z,87.06
2022-10-05T04:50:34.749Z,87.25
2022-10-05T04:51:34.781Z,86.96
2022-10-05T04:52:34.813Z,87.25
2022-10-05T04:53:34.848Z,87.15
2022-10-05T04:54:34.886Z,86.96
2022-10-05T04:55:34.909Z,87.63
2022-10-05T04:56:34.939Z,87.15
2022-10-05T04:57:34.977Z,87.06
2022-10-05T04:58:37.813Z,86.96
2022-10-05T04:59:35.036Z,87.25
2022-10-05T05:00:35.146Z,87.54
2022-10-05T05:01:35.115Z,87.44
2022-10-05T05:02:35.140Z,86.96
2022-10-05T05:03:35.203Z,86.87
2022-10-05T05:04:35.198Z,86.87
2022-10-05T05:05:35.231Z,87.44
2022-10-05T05:06:35.262Z,87.44
2022-10-05T05:07:35.300Z,87.35
2022-10-05T05:08:35.326Z,87.44
2022-10-05T05:09:35.362Z,87.35
2022-10-05T05:10:35.392Z,87.15
2022-10-05T05:11:35.425Z,87.25
2022-10-05T05:12:35.455Z,86.96
2022-10-05T05:13:35.487Z,87.35
2022-10-05T05:14:35.523Z,86.96
2022-10-05T05:15:35.555Z,87.15
2022-10-05T05:16:35.720Z,87.35
2022-10-05T05:17:35.616Z,87.54
2022-10-05T05:18:35.650Z,86.87
2022-10-05T05:19:35.681Z,87.25
2022-10-05T05:20:35.715Z,87.25
2022-10-05T05:21:35.747Z,87.06
2022-10-05T05:22:35.776Z,87.15
2022-10-05T05:23:35.877Z,87.35
2022-10-05T05:24:35.842Z,87.06
2022-10-05T05:25:35.874Z,87.25
2022-10-05T05:26:39.014Z,87.25
2022-10-05T05:27:35.941Z,86.87
2022-10-05T05:28:36.065Z,87.06
2022-10-05T05:29:36.004Z,87.35
2022-10-05T05:30:36.036Z,87.63
2022-10-05T05:31:36.148Z,87.35
2022-10-05T05:32:36.101Z,87.35
2022-10-05T05:33:36.132Z,87.25
2022-10-05T05:34:36.167Z,87.25
2022-10-05T05:35:36.196Z,86.96
2022-10-05T05:36:36.229Z,87.25
2022-10-05T05:37:36.263Z,86.96
2022-10-05T05:38:36.295Z,87.44
2022-10-05T05:39:36.326Z,87.54
2022-10-05T05:40:36.359Z,87.15
2022-10-05T05:41:36.392Z,87.15
2022-10-05T05:42:36.427Z,86.96
2022-10-05T05:43:36.454Z,86.96
2022-10-05T05:44:38.765Z,87.44
2022-10-05T05:45:36.519Z,87.35
2022-10-05T05:47:01.620Z,87.73
2022-10-05T05:47:36.624Z,87.35
2022-10-05T05:48:36.738Z,87.15
2022-10-05T05:49:36.649Z,87.82
2022-10-05T05:50:36.682Z,87.54
2022-10-05T05:51:36.713Z,87.54
2022-10-05T05:52:36.743Z,87.35
2022-10-05T05:53:36.783Z,87.54
2022-10-05T05:54:36.810Z,87.92
2022-10-05T05:55:36.847Z,88.11
2022-10-05T05:56:36.874Z,87.73
2022-10-05T05:57:36.908Z,87.54
2022-10-05T05:58:36.935Z,87.54
2022-10-05T05:59:36.980Z,87.92
2022-10-05T06:00:37.001Z,87.73
2022-10-05T06:01:40.703Z,87.54
2022-10-05T06:02:37.185Z,87.35
2022-10-05T06:03:37.099Z,87.44
2022-10-05T06:04:37.132Z,87.15
2022-10-05T06:05:37.165Z,87.54
2022-10-05T06:06:37.194Z,87.73
2022-10-05T06:07:37.228Z,87.63
2022-10-05T06:08:37.259Z,87.63
2022-10-05T06:09:37.293Z,87.15
2022-10-05T06:10:37.325Z,87.15
2022-10-05T06:11:37.356Z,87.54
2022-10-05T06:12:37.387Z,87.15
2022-10-05T06:13:37.422Z,86.96
2022-10-05T06:14:37.453Z,87.25
2022-10-05T06:15:37.484Z,86.87
2022-10-05T06:16:37.622Z,86.96
2022-10-05T06:17:37.550Z,87.15
2022-10-05T06:18:37.587Z,87.15
2022-10-05T06:19:37.614Z,86.96
2022-10-05T06:20:37.656Z,87.06
2022-10-05T06:21:37.680Z,87.25
2022-10-05T06:22:37.709Z,87.15
2022-10-05T06:23:37.744Z,87.25
2022-10-05T06:24:37.775Z,87.15
2022-10-05T06:25:37.808Z,87.35
2022-10-05T06:26:37.838Z,87.35
2022-10-05T06:27:37.874Z,87.35
2022-10-05T06:28:38.001Z,86.96
2022-10-05T06:29:37.937Z,87.15
2022-10-05T06:30:38.032Z,86.87
2022-10-05T06:31:38.059Z,87.15
2022-10-05T06:32:38.031Z,86.87
2022-10-05T06:33:38.068Z,87.06
2022-10-05T06:34:38.095Z,87.25
2022-10-05T06:35:38.128Z,88.30
2022-10-05T06:36:38.163Z,88.01
2022-10-05T06:37:38.216Z,88.73
2022-10-05T06:38:38.241Z,88.20
2022-10-05T06:39:38.256Z,88.11
2022-10-05T06:40:38.289Z,87.58
2022-10-05T06:41:38.379Z,87.44
2022-10-05T06:42:38.366Z,87.48
2022-10-05T06:43:38.388Z,87.39
2022-10-05T06:44:38.420Z,87.48
2022-10-05T06:45:38.559Z,87.20
2022-10-05T06:46:38.486Z,87.39
2022-10-05T06:47:38.537Z,86.82
2022-10-05T06:48:38.550Z,86.72
2022-10-05T06:49:38.581Z,86.63
2022-10-05T06:50:38.613Z,86.82
2022-10-05T06:51:38.655Z,87.01
2022-10-05T06:52:38.683Z,86.82
2022-10-05T06:53:38.711Z,87.20
2022-10-05T06:54:38.742Z,87.01
2022-10-05T06:55:38.780Z,86.63
2022-10-05T06:56:38.807Z,86.15
2022-10-05T06:57:38.841Z,86.53
2022-10-05T06:58:38.871Z,86.24
2022-10-05T06:59:38.906Z,86.24
2022-10-05T07:00:38.937Z,86.53
2022-10-05T07:01:39.179Z,86.24
2022-10-05T07:02:39.121Z,86.53
2022-10-05T07:03:39.033Z,86.34
2022-10-05T07:04:39.067Z,86.15
2022-10-05T07:05:39.100Z,86.43
2022-10-05T07:06:39.136Z,86.24
2022-10-05T07:07:39.169Z,86.24
2022-10-05T07:08:39.197Z,86.24
2022-10-05T07:09:39.314Z,86.05
2022-10-05T07:10:39.265Z,86.43
2022-10-05T07:11:39.295Z,86.05
2022-10-05T07:12:39.330Z,86.53
2022-10-05T07:13:39.363Z,86.63
2022-10-05T07:14:39.403Z,86.63
2022-10-05T07:15:39.425Z,86.24
2022-10-05T07:16:39.511Z,86.72
2022-10-05T07:17:39.490Z,86.43
2022-10-05T07:18:39.526Z,86.43
2022-10-05T07:19:39.555Z,86.29
2022-10-05T07:20:39.588Z,85.67
2022-10-05T07:21:39.631Z,85.77
2022-10-05T07:22:39.658Z,85.86
2022-10-05T07:23:39.685Z,86.43
2022-10-05T07:24:39.717Z,85.67
2022-10-05T07:25:39.753Z,86.15
2022-10-05T07:26:39.786Z,85.81
2022-10-05T07:27:39.816Z,85.77
2022-10-05T07:28:39.959Z,85.71
2022-10-05T07:29:39.882Z,85.52
2022-10-05T07:30:39.943Z,85.77
2022-10-05T07:31:39.945Z,85.81
2022-10-05T07:32:39.977Z,85.90
2022-10-05T07:33:40.016Z,85.90
2022-10-05T07:34:40.044Z,85.81
2022-10-05T07:35:40.077Z,85.62
2022-10-05T07:36:40.108Z,85.81
2022-10-05T07:37:40.162Z,85.81
2022-10-05T07:38:40.174Z,85.81
2022-10-05T07:39:59.767Z,85.05
2022-10-05T07:40:40.244Z,85.14
2022-10-05T07:41:40.271Z,85.81
2022-10-05T07:42:47.335Z,85.71
2022-10-05T07:44:00.979Z,85.14
2022-10-05T07:44:40.376Z,84.85
2022-10-05T07:45:40.436Z,84.76
2022-10-05T07:46:40.437Z,84.66
2022-10-05T07:47:40.470Z,84.47
2022-10-05T07:48:40.508Z,83.80
2022-10-05T07:49:40.535Z,84.19
2022-10-05T07:50:40.569Z,84.19
2022-10-05T07:51:40.599Z,84.42
2022-10-05T07:52:40.634Z,84.52
2022-10-05T07:53:40.665Z,84.38
2022-10-05T07:54:40.699Z,84.66
2022-10-05T07:55:40.730Z,83.99
2022-10-05T07:56:40.816Z,84.13
2022-10-05T07:57:40.805Z,83.90
2022-10-05T07:58:40.830Z,85.09
2022-10-05T07:59:40.861Z,84.42
2022-10-05T08:00:40.899Z,84.23
2022-10-05T08:01:40.990Z,83.94
2022-10-05T08:02:41.016Z,84.23
2022-10-05T08:03:40.993Z,83.84
2022-10-05T08:04:42.005Z,83.37
2022-10-05T08:05:41.066Z,83.56
2022-10-05T08:06:41.096Z,83.84
2022-10-05T08:07:41.125Z,83.65
2022-10-05T08:08:41.157Z,83.94
2022-10-05T08:09:41.191Z,83.75
2022-10-05T08:10:41.223Z,83.94
2022-10-05T08:11:41.257Z,83.46
2022-10-05T08:12:41.289Z,83.75
2022-10-05T08:13:41.322Z,83.56
2022-10-05T08:14:41.354Z,83.75
2022-10-05T08:15:41.440Z,84.32
2022-10-05T08:16:41.422Z,83.46
2022-10-05T08:17:41.465Z,83.94
2022-10-05T08:18:41.487Z,83.56
2022-10-05T08:19:41.519Z,82.98
2022-10-05T08:20:41.561Z,83.37
2022-10-05T08:21:41.587Z,83.37
2022-10-05T08:22:41.620Z,83.27
2022-10-05T08:23:41.653Z,83.17
2022-10-05T08:24:41.686Z,82.41
2022-10-05T08:25:41.717Z,82.41
2022-10-05T08:26:41.753Z,82.54
2022-10-05T08:27:41.783Z,82.64
2022-10-05T08:28:41.822Z,82.74
2022-10-05T08:29:41.849Z,82.54
2022-10-05T08:30:41.884Z,82.74
2022-10-05T08:31:49.714Z,82.35
2022-10-05T08:33:46.010Z,82.54
2022-10-05T08:34:46.008Z,81.97
2022-10-05T08:36:39.275Z,81.40
2022-10-05T08:37:39.225Z,81.49
2022-10-05T08:39:32.398Z,81.82
2022-10-05T08:40:32.391Z,80.73
2022-10-05T08:42:25.585Z,80.54
2022-10-05T08:43:25.578Z,81.15
2022-10-05T08:45:18.849Z,81.44
2022-10-05T08:46:18.890Z,80.58
2022-10-05T08:48:22.851Z,80.67
2022-10-05T08:49:22.876Z,80.87
2022-10-05T08:51:26.985Z,79.62
2022-10-05T08:52:26.971Z,80.04
2022-10-05T08:54:31.046Z,78.99
2022-10-05T08:55:31.073Z,78.61
2022-10-05T08:57:24.280Z,78.61
2022-10-05T08:58:24.271Z,78.70
2022-10-05T09:00:17.464Z,78.42
2022-10-05T09:01:17.514Z,78.22
2022-10-05T09:03:10.684Z,78.89
2022-10-05T09:04:10.681Z,78.42
2022-10-05T09:06:03.706Z,78.89
2022-10-05T09:07:03.691Z,78.70
2022-10-05T09:09:07.763Z,79.08
2022-10-05T09:10:07.788Z,79.18
2022-10-05T09:12:00.993Z,78.99
2022-10-05T09:13:00.981Z,79.37
2022-10-05T09:15:24.807Z,79.08
2022-10-05T09:16:05.108Z,79.18
2022-10-05T09:17:58.248Z,79.95
2022-10-05T09:18:58.251Z,79.66
2022-10-05T09:21:02.333Z,79.47
2022-10-05T09:22:02.335Z,79.75
2022-10-05T09:23:55.541Z,79.28
2022-10-05T09:24:55.548Z,79.75
2022-10-05T09:26:59.592Z,79.37
2022-10-05T09:27:59.662Z,79.08
2022-10-05T09:30:03.671Z,79.28
2022-10-05T09:31:03.772Z,79.47
2022-10-05T09:33:07.783Z,79.85
2022-10-05T09:34:07.816Z,79.66
2022-10-05T09:36:00.830Z,79.47
2022-10-05T09:37:00.821Z,79.99
2022-10-05T09:39:04.981Z,79.60
2022-10-05T09:40:04.922Z,79.66
2022-10-05T09:42:09.055Z,79.70
2022-10-05T09:43:09.049Z,79.89
2022-10-05T09:45:02.251Z,79.32
2022-10-05T09:46:02.263Z,79.13
2022-10-05T09:47:55.413Z,79.22
2022-10-05T09:48:55.562Z,79.03
2022-10-05T09:50:48.650Z,78.45
2022-10-05T09:51:48.966Z,78.55
2022-10-05T09:53:41.807Z,79.13
2022-10-05T09:54:41.834Z,78.88
2022-10-05T09:56:35.055Z,78.40
2022-10-05T09:57:34.857Z,78.49
2022-10-05T09:59:38.938Z,77.63
2022-10-05T10:00:38.962Z,77.29
2022-10-05T10:02:32.267Z,77.19
2022-10-05T10:03:32.225Z,77.00
2022-10-05T10:05:36.264Z,76.90
2022-10-05T10:06:36.286Z,76.23
2022-10-05T10:07:36.320Z,76.04
2022-10-05T10:08:36.373Z,76.23
2022-10-05T10:09:38.686Z,75.95
2022-10-05T10:10:36.434Z,75.65
2022-10-05T10:11:36.453Z,75.65
2022-10-05T10:12:36.488Z,75.37
2022-10-05T10:13:36.523Z,75.46
2022-10-05T10:14:36.558Z,75.60
2022-10-05T10:15:36.629Z,74.01
2022-10-05T10:16:36.630Z,73.43
2022-10-05T10:17:36.661Z,71.73
2022-10-05T10:18:36.696Z,71.73
2022-10-05T10:19:36.731Z,71.73
2022-10-05T10:20:36.770Z,71.64
2022-10-05T10:21:36.802Z,71.67
2022-10-05T10:22:42.221Z,70.52
2022-10-05T10:23:36.878Z,69.46
2022-10-05T10:24:36.912Z,68.60
2022-10-05T10:25:36.940Z,70.33
2022-10-05T10:26:37.010Z,69.50
2022-10-05T10:27:37.012Z,69.12
2022-10-05T10:28:37.113Z,68.60
2022-10-05T10:29:37.082Z,69.69
2022-10-05T10:30:37.117Z,69.60
2022-10-05T10:31:37.153Z,69.79
2022-10-05T10:32:37.188Z,68.54
2022-10-05T10:33:37.225Z,69.24
2022-10-05T10:34:37.259Z,68.09
2022-10-05T10:35:37.291Z,67.71
2022-10-05T10:36:37.341Z,67.26
2022-10-05T10:37:37.367Z,67.07
2022-10-05T10:38:37.402Z,66.36
2022-10-05T10:39:37.439Z,66.46
2022-10-05T10:40:37.472Z,67.32
2022-10-05T10:41:37.509Z,67.13
2022-10-05T10:42:37.545Z,67.90
2022-10-05T10:43:37.582Z,67.42
2022-10-05T10:44:37.618Z,67.71
2022-10-05T10:45:37.654Z,67.99
2022-10-05T10:46:37.808Z,68.38
2022-10-05T10:47:37.727Z,67.71
2022-10-05T10:48:37.764Z,67.86
2022-10-05T10:49:37.822Z,69.02
2022-10-05T10:50:37.834Z,70.07
2022-10-05T10:51:37.872Z,69.53
2022-10-05T10:52:37.908Z,69.38
2022-10-05T10:53:37.952Z,69.02
2022-10-05T10:54:37.981Z,67.00
2022-10-05T10:55:38.017Z,65.75
2022-10-05T10:56:38.055Z,65.98
2022-10-05T10:57:38.088Z,66.11
2022-10-05T10:58:38.127Z,63.73
2022-10-05T10:59:38.160Z,60.64
2022-10-05T11:00:38.201Z,61.35
2022-10-05T11:01:38.295Z,62.09
2022-10-05T11:02:38.324Z,61.44
2022-10-05T11:03:38.307Z,60.58
2022-10-05T11:04:38.347Z,60.64
2022-10-05T11:05:38.381Z,60.71
2022-10-05T11:06:38.420Z,61.48
2022-10-05T11:07:38.459Z,62.41
2022-10-05T11:08:38.492Z,63.41
2022-10-05T11:09:38.533Z,63.50
2022-10-05T11:10:38.566Z,64.66
2022-10-05T11:11:38.601Z,63.34
2022-10-05T11:12:38.675Z,64.15
2022-10-05T11:13:38.676Z,64.05
2022-10-05T11:14:38.725Z,60.71
2022-10-05T11:15:38.829Z,59.16
2022-10-05T11:16:38.797Z,60.03
2022-10-05T11:17:38.830Z,59.48
2022-10-05T11:18:38.866Z,59.86
2022-10-05T11:19:40.783Z,59.12
2022-10-05T11:20:38.939Z,59.31
2022-10-05T11:21:38.975Z,58.57
2022-10-05T11:22:39.012Z,58.21
2022-10-05T11:23:39.271Z,57.05
2022-10-05T11:24:39.098Z,56.86
2022-10-05T11:25:39.139Z,55.92
2022-10-05T11:26:39.163Z,56.21
2022-10-05T11:27:39.203Z,56.21
2022-10-05T11:28:39.312Z,55.92
2022-10-05T11:29:39.276Z,56.34
2022-10-05T11:30:39.316Z,55.17
2022-10-05T11:31:39.403Z,53.59
2022-10-05T11:32:39.396Z,54.63
2022-10-05T11:33:39.432Z,55.21
2022-10-05T11:34:39.472Z,54.44
2022-10-05T11:35:39.512Z,55.89
2022-10-05T11:36:39.548Z,56.76
2022-10-05T11:37:39.585Z,57.44
2022-10-05T11:38:39.625Z,55.99
2022-10-05T11:39:39.671Z,56.57
2022-10-05T11:40:39.704Z,56.76
2022-10-05T11:41:39.743Z,56.86
2022-10-05T11:42:39.782Z,57.51
2022-10-05T11:43:39.819Z,56.83
2022-10-05T11:44:39.861Z,56.99
2022-10-05T11:45:39.898Z,58.35
2022-10-05T11:46:40.028Z,59.31
2022-10-05T11:47:39.975Z,59.12
2022-10-05T11:48:40.020Z,59.80
2022-10-05T11:49:40.055Z,59.63
2022-10-05T11:50:40.093Z,59.34
2022-10-05T11:51:40.132Z,58.76
2022-10-05T11:52:40.173Z,59.34
2022-10-05T11:53:40.212Z,60.21
2022-10-05T11:55:05.994Z,59.99
2022-10-05T11:55:40.290Z,59.22
2022-10-05T11:56:40.329Z,58.70
2022-10-05T11:57:40.452Z,60.03
2022-10-05T11:58:40.407Z,60.61
2022-10-05T11:59:40.445Z,60.31
2022-10-05T12:00:40.513Z,61.64
2022-10-05T12:01:40.521Z,62.02
2022-10-05T12:02:42.983Z,62.48
2022-10-05T12:03:40.709Z,63.44
2022-10-05T12:04:40.643Z,62.57
2022-10-05T12:05:40.680Z,63.82
2022-10-05T12:06:40.719Z,64.50
2022-10-05T12:07:40.757Z,63.92
2022-10-05T12:08:40.796Z,64.69
2022-10-05T12:09:40.833Z,65.27
2022-10-05T12:10:40.875Z,64.69
2022-10-05T12:11:40.908Z,64.11
2022-10-05T12:12:40.948Z,64.50
2022-10-05T12:13:40.988Z,63.47
2022-10-05T12:14:41.025Z,62.79
2022-10-05T12:15:41.139Z,63.18
2022-10-05T12:16:41.104Z,62.41
2022-10-05T12:17:41.136Z,62.54
2022-10-05T12:18:41.179Z,62.82
2022-10-05T12:19:41.215Z,62.73
2022-10-05T12:20:41.256Z,61.47
2022-10-05T12:21:41.293Z,60.44
2022-10-05T12:22:41.332Z,60.44
2022-10-05T12:23:41.403Z,60.38
2022-10-05T12:24:41.410Z,61.05
2022-10-05T12:25:41.444Z,61.08
2022-10-05T12:26:41.485Z,60.41
2022-10-05T12:27:41.523Z,58.67
2022-10-05T12:28:41.562Z,59.15
2022-10-05T12:29:41.631Z,58.98
2022-10-05T12:30:41.639Z,58.92
2022-10-05T12:31:41.706Z,58.14
2022-10-05T12:32:41.716Z,58.34
2022-10-05T12:33:41.753Z,56.52
2022-10-05T12:34:41.795Z,55.46
2022-10-05T12:35:48.442Z,55.94
2022-10-05T12:37:03.161Z,55.20
2022-10-05T12:37:41.927Z,56.26
2022-10-05T12:38:41.955Z,55.40
2022-10-05T12:39:41.990Z,54.52
2022-10-05T12:40:42.027Z,53.94
2022-10-05T12:41:42.064Z,53.45
2022-10-05T12:42:42.230Z,54.13
2022-10-05T12:43:42.163Z,55.10
2022-10-05T12:44:42.188Z,54.81
2022-10-05T12:45:42.383Z,54.23
2022-10-05T12:46:42.261Z,55.10
2022-10-05T12:47:42.300Z,54.62
2022-10-05T12:48:42.339Z,54.16
2022-10-05T12:49:42.378Z,54.55
2022-10-05T12:50:42.423Z,54.74
2022-10-05T12:51:42.471Z,53.87
2022-10-05T12:52:42.497Z,54.06
2022-10-05T12:53:42.541Z,53.39
2022-10-05T12:54:42.579Z,53.26
2022-10-05T12:55:42.616Z,53.45
2022-10-05T12:56:42.658Z,53.17
2022-10-05T12:57:42.696Z,53.72
2022-10-05T12:58:42.736Z,55.07
2022-10-05T12:59:42.773Z,55.07
2022-10-05T13:00:42.843Z,55.76
2022-10-05T13:01:42.932Z,55.85
2022-10-05T13:02:42.898Z,55.36
2022-10-05T13:03:42.935Z,52.85
2022-10-05T13:04:42.978Z,53.91
2022-10-05T13:05:43.014Z,53.14
2022-10-05T13:06:43.055Z,52.95
2022-10-05T13:07:43.093Z,53.11
2022-10-05T13:08:43.135Z,53.43
2022-10-05T13:09:43.173Z,52.66
2022-10-05T13:10:43.215Z,53.59
2022-10-05T13:11:43.253Z,53.11
2022-10-05T13:12:43.294Z,53.41
2022-10-05T13:13:43.337Z,54.49
2022-10-05T13:14:43.374Z,53.91
2022-10-05T13:15:43.414Z,53.14
2022-10-05T13:16:43.486Z,52.85
2022-10-05T13:17:43.498Z,53.53
2022-10-05T13:18:43.534Z,54.21
2022-10-05T13:19:43.573Z,53.36
2022-10-05T13:20:43.614Z,54.33
2022-10-05T13:21:43.652Z,54.13
2022-10-05T13:22:43.697Z,53.97
2022-10-05T13:23:43.738Z,53.49